首页
METAR-TAF:

METAR-TAF

机场 :

空军基地 Lanvéoc-Poulmic

Lanvéoc, 法国

纬度: 48-17N, 经度: 004-26W, 海拔: 87米

当前天气观测

该预报发布于30分钟前的00:30 UTC
风速7节,风向东北
温度 14°C
湿度 72%
气压 1034 hPa
能见度10公里或以上
1500米以下无云,无积雨云

METAR: LFRL 270030Z AUTO 05007KT CAVOK 14/09 Q1034

时间: 03:00 (01:00 UTC)

预报

该预报发布于14小时和0分钟前的11:00 UTC
预报有效从26日的 12点(UTC)到 27日的 12点(UTC)
风速8节,风向东北
能见度10公里或以上
1500米以下无云,无积雨云
短暂存在
从 26日的 15点(UTC)到 26日的 18点(UTC)
风速15节,风向北转东北,有时为25节阵风

TAF: LFRL 261100Z 2612/2712 04008KT CAVOK TEMPO 2615/2618 03015G25KT

超过4000个机场的气象观测和天气预报(METAR&TAF报告)。

可查询的气象台以黄色和红色小点在地图上表示。

将鼠标移到小点上方,可查看气象台名称。

然后点击查看天气观测和预报。

如需切换地图:点击带黑十字的绿色按钮放大地图;点击带横线的绿色按钮缩小地图;或者点击绿色箭头查看邻近地区的地图。


METAR-TAF: